Time;durP1;ratioP1;P1;durP2;ratioP2;P2;SDS_P1;SDS_P2;PMS_P1;PMS_P2;Temp;Humidity;BMP_temperature;BMP_pressure;BME280_temperature;BME280_humidity;BME280_pressure;Samples;Min_cycle;Max_cycle;Signal;HPM_P1;HPM_P2
2022/05/26 00:00:35;;;;;;;5.10;2.20;;;;;;;;;;5007326;28;20014;-85
2022/05/26 00:03:01;;;;;;;4.35;1.17;;;16.90;85.70;;;;;;5007304;28;20120;-84
2022/05/26 00:05:28;;;;;;;1.55;0.80;;;17.20;86.50;;;;;;5031487;28;20124;-83
2022/05/26 00:07:54;;;;;;;2.80;1.02;;;;;;;;;;5033993;28;20033;-85
2022/05/26 00:10:21;;;;;;;4.07;1.42;;;17.10;86.40;;;;;;5004053;28;20465;-84
2022/05/26 00:12:46;;;;;;;2.72;1.00;;;18.20;87.60;;;;;;5004095;28;20044;-83
2022/05/26 00:15:13;;;;;;;4.45;0.90;;;17.10;86.40;;;;;;5021190;28;20025;-85
2022/05/26 00:17:39;;;;;;;5.63;1.30;;;;;;;;;;5020538;28;20057;-80
2022/05/26 00:20:06;;;;;;;4.90;0.90;;;17.10;86.70;;;;;;5017005;28;20022;-84
2022/05/26 00:22:32;;;;;;;1.88;1.00;;;17.00;87.50;;;;;;5021801;28;20117;-83
2022/05/26 00:24:58;;;;;;;1.70;0.90;;;17.90;88.30;;;;;;5028853;28;20029;-83
2022/05/26 00:27:24;;;;;;;4.13;1.20;;;17.00;87.50;;;;;;5041176;28;20030;-82
2022/05/26 00:29:50;;;;;;;3.92;1.40;;;;;;;;;;5008922;28;20026;-81
2022/05/26 00:32:16;;;;;;;5.30;2.10;;;;;;;;;;5019955;28;20028;-84
2022/05/26 00:34:42;;;;;;;9.93;5.85;;;17.00;88.00;;;;;;5004017;28;20046;-82
2022/05/26 00:37:09;;;;;;;4.95;2.30;;;17.00;88.20;;;;;;5024808;28;20029;-83
2022/05/26 00:39:37;;;;;;;3.40;1.52;;;19.00;89.70;;;;;;5010394;28;20033;-82
2022/05/26 00:42:05;;;;;;;6.07;1.90;;;17.00;88.60;;;;;;5002630;28;20075;-82
2022/05/26 00:44:31;;;;;;;4.80;1.73;;;17.00;88.50;;;;;;5008088;28;20026;-83
2022/05/26 00:47:09;;;;;;;2.92;1.45;;;17.00;88.40;;;;;;5012179;28;20447;-83
2022/05/26 00:49:50;;;;;;;2.58;1.30;;;17.00;88.70;;;;;;5008173;28;20026;-82
2022/05/26 00:52:28;;;;;;;4.35;1.98;;;17.00;88.70;;;;;;5006464;28;20030;-84
2022/05/26 00:55:08;;;;;;;3.50;1.60;;;17.00;89.00;;;;;;5001280;28;20026;-84
2022/05/26 00:57:39;;;;;;;6.50;2.00;;;17.00;88.70;;;;;;5012151;28;20025;-83
2022/05/26 01:00:12;;;;;;;4.70;1.45;;;17.00;89.00;;;;;;5023320;28;20042;-83
2022/05/26 01:02:44;;;;;;;3.95;1.33;;;17.00;89.00;;;;;;5010286;28;20112;-83
2022/05/26 01:05:32;;;;;;;2.20;1.23;;;17.00;89.40;;;;;;5023828;28;20032;-83
2022/05/26 01:08:00;;;;;;;2.45;0.70;;;17.60;89.50;;;;;;5004474;28;20022;-84
2022/05/26 01:10:26;;;;;;;4.13;1.38;;;16.90;89.00;;;;;;5010624;28;20022;-83
2022/05/26 01:12:51;;;;;;;4.85;1.80;;;17.00;89.50;;;;;;5020718;28;20022;-84
2022/05/26 01:15:20;;;;;;;9.10;2.22;;;16.90;89.00;;;;;;5020070;28;20052;-80
2022/05/26 01:17:49;;;;;;;6.68;2.55;;;16.90;89.50;;;;;;4987686;28;20026;-81
2022/05/26 01:20:23;;;;;;;7.82;3.45;;;17.00;89.60;;;;;;5023179;28;20100;-81
2022/05/26 01:23:08;;;;;;;8.15;2.78;;;16.90;89.80;;;;;;5026410;28;20034;-81
2022/05/26 01:25:44;;;;;;;7.95;3.58;;;16.90;89.90;;;;;;4996634;28;20488;-82
2022/05/26 01:28:28;;;;;;;7.65;2.90;;;16.90;90.00;;;;;;5020928;28;20050;-83
2022/05/26 01:31:15;;;;;;;5.63;2.30;;;16.80;89.80;;;;;;5019407;28;20488;-84
2022/05/26 01:33:56;;;;;;;7.35;2.67;;;16.80;90.10;;;;;;5015572;28;20104;-83
2022/05/26 01:36:38;;;;;;;8.90;3.15;;;16.80;90.30;;;;;;5018623;28;20026;-83
2022/05/26 01:39:31;;;;;;;5.03;2.17;;;16.80;90.30;;;;;;5001557;28;20022;-84
2022/05/26 01:42:08;;;;;;;6.05;2.38;;;16.80;90.40;;;;;;5017568;28;20526;-81
2022/05/26 01:44:53;;;;;;;12.05;5.90;;;16.80;90.60;;;;;;5032995;28;20044;-81
2022/05/26 01:47:42;;;;;;;5.57;2.70;;;16.70;90.80;;;;;;5025515;28;20126;-82
2022/05/26 01:50:33;;;;;;;3.50;1.65;;;16.80;90.50;;;;;;5002054;28;20022;-81
2022/05/26 01:53:27;;;;;;;7.32;3.03;;;16.80;90.70;;;;;;5026638;28;20030;-81
2022/05/26 01:56:16;;;;;;;6.40;1.63;;;16.80;90.70;;;;;;5005488;28;20030;-82
2022/05/26 01:58:45;;;;;;;5.55;1.58;;;16.80;90.80;;;;;;5007462;28;20030;-81
2022/05/26 02:01:15;;;;;;;4.72;1.65;;;16.70;90.90;;;;;;5024764;28;20034;-83
2022/05/26 02:03:45;;;;;;;5.93;2.97;;;16.60;91.10;;;;;;5015700;28;20034;-83
2022/05/26 02:06:19;;;;;;;4.03;1.70;;;16.60;91.10;;;;;;5014148;28;20026;-84
2022/05/26 02:09:11;;;;;;;3.45;1.45;;;16.70;91.30;;;;;;5014602;28;20045;-83
2022/05/26 02:11:47;;;;;;;4.22;1.40;;;16.60;91.50;;;;;;5027141;28;20526;-83
2022/05/26 02:14:17;;;;;;;3.85;1.48;;;16.60;91.60;;;;;;5008779;28;20030;-85
2022/05/26 02:16:58;;;;;;;2.33;0.90;;;18.30;92.30;;;;;;5027449;28;20030;-82
2022/05/26 02:19:28;;;;;;;;;;;16.60;91.90;;;;;;5023491;28;20022;-82
2022/05/26 02:22:26;;;;;;;2.95;0.93;;;16.50;91.90;;;;;;5025216;28;19936;-83
2022/05/26 02:25:12;;;;;;;7.32;2.42;;;16.50;92.00;;;;;;5030045;28;20021;-83
2022/05/26 02:27:38;;;;;;;1.38;1.00;;;16.50;92.00;;;;;;5024866;28;20029;-84
2022/05/26 02:30:07;;;;;;;3.22;0.90;;;16.50;92.10;;;;;;5022631;28;20049;-83
2022/05/26 02:32:37;;;;;;;1.58;0.95;;;16.40;92.20;;;;;;5025438;28;20029;-84
2022/05/26 02:35:16;;;;;;;3.10;0.93;;;16.40;92.40;;;;;;5024644;28;20018;-82
2022/05/26 02:37:45;;;;;;;3.08;0.85;;;16.30;92.60;;;;;;5009695;28;20033;-83
2022/05/26 02:40:11;;;;;;;2.13;0.80;;;16.30;92.60;;;;;;5024787;28;20077;-83
2022/05/26 02:42:44;;;;;;;2.83;0.80;;;16.30;92.70;;;;;;5018168;28;20030;-84
2022/05/26 02:45:10;;;;;;;1.98;0.80;;;17.20;93.10;;;;;;5017718;28;20037;-83
2022/05/26 02:48:04;;;;;;;3.28;1.25;;;16.20;93.10;;;;;;5000454;28;20038;-84
2022/05/26 02:50:51;;;;;;;3.75;1.10;;;16.20;93.30;;;;;;5023087;28;20022;-82
2022/05/26 02:53:30;;;;;;;2.35;1.00;;;16.20;93.50;;;;;;4991772;28;20034;-81
2022/05/26 02:56:11;;;;;;;1.40;0.90;;;16.20;93.60;;;;;;4997650;28;20109;-80
2022/05/26 02:58:50;;;;;;;2.22;0.90;;;16.30;93.80;;;;;;5019568;28;20037;-83
2022/05/26 03:01:30;;;;;;;2.03;0.90;;;16.20;94.00;;;;;;5005833;28;20491;-81
2022/05/26 03:04:04;;;;;;;3.22;0.82;;;16.10;94.20;;;;;;5031190;28;20040;-83
2022/05/26 03:06:36;;;;;;;3.67;0.98;;;16.00;94.30;;;;;;5009326;28;20036;-82
2022/05/26 03:09:03;;;;;;;2.85;0.90;;;15.80;94.50;;;;;;5009917;28;20029;-81
2022/05/26 03:11:29;;;;;;;2.50;0.75;;;16.00;94.60;;;;;;5007445;28;20025;-83
2022/05/26 03:13:55;;;;;;;2.25;0.85;;;16.70;94.90;;;;;;5038271;28;20009;-86
2022/05/26 03:16:21;;;;;;;5.57;1.13;;;15.80;94.70;;;;;;5025003;28;20062;-87
2022/05/26 03:18:48;;;;;;;2.03;1.02;;;15.90;94.90;;;;;;5041428;28;20030;-83
2022/05/26 03:21:14;;;;;;;3.00;0.90;;;16.30;94.90;;;;;;5020685;28;20037;-84
2022/05/26 03:23:40;;;;;;;2.05;0.70;;;15.90;95.00;;;;;;5025496;28;20436;-82
2022/05/26 03:26:07;;;;;;;2.53;0.85;;;17.80;95.60;;;;;;5019054;28;20065;-83
2022/05/26 03:28:33;;;;;;;3.35;1.17;;;15.90;95.10;;;;;;5001254;28;20030;-81
2022/05/26 03:30:59;;;;;;;4.10;1.05;;;15.90;95.10;;;;;;5013105;28;20030;-87
2022/05/26 03:33:26;;;;;;;4.03;1.05;;;15.90;95.20;;;;;;5006056;28;20022;-84
2022/05/26 03:41:23;;;;;;;3.30;1.00;;;15.90;95.50;;;;;;5018854;28;20057;-84
2022/05/26 03:43:55;;;;;;;3.97;1.10;;;15.80;95.70;;;;;;5003617;28;20049;-83
2022/05/26 03:46:21;;;;;;;3.65;1.02;;;15.80;95.80;;;;;;5029264;28;20049;-83
2022/05/26 03:48:46;;;;;;;3.22;1.20;;;15.70;96.10;;;;;;4997104;28;20034;-84
2022/05/26 03:51:13;;;;;;;2.00;1.13;;;;;;;;;;5004010;28;20034;-83
2022/05/26 03:53:38;;;;;;;3.17;1.17;;;15.70;96.20;;;;;;5017708;28;20038;-82
2022/05/26 03:56:05;;;;;;;3.80;0.95;;;15.70;96.40;;;;;;5026983;28;20042;-83
2022/05/26 03:58:32;;;;;;;2.58;1.10;;;15.70;96.50;;;;;;5005875;28;20030;-82
2022/05/26 04:01:05;;;;;;;4.50;1.20;;;15.70;96.60;;;;;;5016147;28;20124;-84
2022/05/26 04:03:31;;;;;;;3.13;1.00;;;15.70;96.80;;;;;;5030348;28;20025;-82
2022/05/26 04:05:57;;;;;;;5.45;1.10;;;15.70;97.00;;;;;;5004786;28;20053;-83
2022/05/26 04:08:23;;;;;;;4.82;1.17;;;15.70;97.20;;;;;;5004747;28;20030;-84
2022/05/26 04:10:49;;;;;;;2.88;1.10;;;15.70;97.30;;;;;;5007415;28;20032;-83
2022/05/26 04:13:15;;;;;;;2.70;1.00;;;15.70;97.40;;;;;;5028787;28;20033;-84
2022/05/26 04:15:41;;;;;;;2.20;1.00;;;15.70;97.50;;;;;;5030125;28;20026;-83
2022/05/26 04:18:07;;;;;;;2.88;0.90;;;15.80;97.60;;;;;;5017682;28;20080;-83
2022/05/26 04:20:33;;;;;;;3.55;1.10;;;15.80;97.50;;;;;;4990911;28;20030;-84
2022/05/26 04:22:58;;;;;;;1.67;1.05;;;16.00;97.60;;;;;;4999510;28;20045;-82
2022/05/26 04:25:25;;;;;;;1.88;0.90;;;15.90;97.60;;;;;;5007464;28;20029;-86
2022/05/26 04:27:53;;;;;;;5.07;1.58;;;15.90;97.80;;;;;;4989417;28;20041;-85
2022/05/26 04:30:20;;;;;;;2.53;0.90;;;15.90;97.60;;;;;;4999222;28;20030;-85
2022/05/26 04:32:46;;;;;;;5.53;1.25;;;;;;;;;;4999440;28;20041;-82
2022/05/26 04:35:12;;;;;;;4.90;1.17;;;;;;;;;;5003284;28;20025;-84
2022/05/26 04:37:38;;;;;;;3.53;1.02;;;;;;;;;;5029793;28;20048;-83
2022/05/26 04:40:06;;;;;;;3.13;1.10;;;15.90;97.80;;;;;;5008554;28;20058;-83
2022/05/26 04:42:33;;;;;;;1.50;0.80;;;15.80;98.20;;;;;;5036804;28;20014;-85
2022/05/26 04:44:59;;;;;;;4.40;0.85;;;;;;;;;;5025074;28;20041;-84
2022/05/26 04:47:25;;;;;;;2.70;1.20;;;;;;;;;;5029050;28;20563;-83
2022/05/26 04:49:51;;;;;;;1.83;0.98;;;;;;;;;;5019036;28;20033;-83
2022/05/26 04:52:20;;;;;;;4.40;1.73;;;15.80;98.20;;;;;;5021464;28;20065;-85
2022/05/26 04:54:46;;;;;;;3.00;1.20;;;;;;;;;;5002195;28;20050;-82
2022/05/26 04:57:14;;;;;;;1.65;0.90;;;15.70;98.60;;;;;;5001572;28;20025;-82
2022/05/26 04:59:40;;;;;;;2.85;1.30;;;15.70;98.80;;;;;;5001399;28;20089;-83
2022/05/26 05:02:10;;;;;;;3.20;1.10;;;15.80;99.00;;;;;;5001084;28;20026;-82
2022/05/26 05:04:39;;;;;;;3.47;1.35;;;15.90;98.60;;;;;;4997585;28;20029;-84
2022/05/26 05:07:05;;;;;;;2.70;0.80;;;15.90;98.70;;;;;;5001506;28;20061;-84
2022/05/26 05:09:31;;;;;;;2.80;1.30;;;17.20;99.20;;;;;;5013929;28;20053;-84
2022/05/26 05:11:56;;;;;;;4.25;1.17;;;15.90;99.00;;;;;;5012104;28;20026;-84
2022/05/26 05:14:22;;;;;;;2.30;1.10;;;;;;;;;;5005261;28;20026;-82
2022/05/26 05:16:48;;;;;;;1.77;1.10;;;;;;;;;;5008979;28;20022;-83
2022/05/26 05:19:17;;;;;;;4.43;1.10;;;16.00;98.80;;;;;;5002183;28;20030;-84
2022/05/26 05:22:08;;;;;;;1.85;1.20;;;17.90;99.50;;;;;;4994701;28;20480;-83
2022/05/26 05:24:40;;;;;;;2.50;1.23;;;16.10;99.00;;;;;;5015798;28;20047;-84
2022/05/26 05:27:22;;;;;;;1.48;1.00;;;16.00;99.10;;;;;;5020854;28;20292;-82
2022/05/26 05:29:51;;;;;;;2.95;1.40;;;16.10;99.20;;;;;;5010664;28;20032;-84
2022/05/26 05:32:22;;;;;;;2.17;1.00;;;16.10;99.00;;;;;;5010272;28;20018;-83
2022/05/26 05:34:54;;;;;;;3.92;1.17;;;17.90;99.80;;;;;;5041912;28;20192;-83
2022/05/26 05:37:20;;;;;;;4.43;1.10;;;16.60;99.50;;;;;;5011115;28;20121;-84
2022/05/26 05:39:46;;;;;;;2.83;1.15;;;16.20;99.40;;;;;;5024454;28;20030;-84
2022/05/26 05:42:12;;;;;;;3.53;1.50;;;17.00;99.30;;;;;;5012262;28;20026;-84
2022/05/26 05:44:38;;;;;;;2.42;1.00;;;16.60;99.30;;;;;;5005265;28;20499;-85
2022/05/26 05:47:04;;;;;;;3.78;1.38;;;16.20;99.30;;;;;;5003002;28;20034;-83
2022/05/26 05:49:31;;;;;;;2.40;1.00;;;16.00;99.80;;;;;;5030118;28;20392;-84
2022/05/26 05:52:04;;;;;;;2.90;0.93;;;16.00;99.90;;;;;;5005697;28;20058;-85
2022/05/26 05:54:31;;;;;;;2.50;0.93;;;16.00;99.90;;;;;;5030564;28;20026;-84
2022/05/26 05:56:57;;;;;;;2.65;1.13;;;16.10;99.90;;;;;;5023095;28;20081;-83
2022/05/26 05:59:23;;;;;;;4.47;1.17;;;16.20;99.80;;;;;;5009229;28;20484;-83
2022/05/26 06:01:49;;;;;;;1.65;0.90;;;16.20;99.90;;;;;;5010854;28;20097;-83
2022/05/26 06:04:15;;;;;;;1.60;0.95;;;17.00;99.90;;;;;;5027599;28;20042;-85
2022/05/26 06:06:43;;;;;;;2.83;1.00;;;16.20;99.90;;;;;;5026610;28;20508;-83
2022/05/26 06:09:13;;;;;;;4.05;1.30;;;16.20;99.90;;;;;;5029029;28;20490;-83
2022/05/26 06:11:40;;;;;;;2.50;1.05;;;16.20;99.90;;;;;;5034933;28;20029;-87
2022/05/26 06:14:06;;;;;;;5.25;1.20;;;17.10;99.90;;;;;;5027294;28;20511;-82
2022/05/26 06:16:32;;;;;;;3.85;1.50;;;17.00;99.90;;;;;;5011091;28;20109;-83
2022/05/26 06:18:58;;;;;;;3.38;1.15;;;17.20;99.90;;;;;;5003683;28;20052;-83
2022/05/26 06:21:24;;;;;;;2.85;1.00;;;;;;;;;;5002149;28;20486;-82
2022/05/26 06:23:52;;;;;;;4.47;1.50;;;16.40;99.90;;;;;;5019372;28;20056;-83
2022/05/26 06:26:18;;;;;;;4.35;0.90;;;;;;;;;;5004930;28;20021;-82
2022/05/26 06:31:28;;;;;;;1.30;0.80;;;16.40;99.90;;;;;;5020459;28;20045;-83
2022/05/26 06:39:25;;;;;;;3.08;0.93;;;16.60;99.90;;;;;;5039161;28;20040;-83
2022/05/26 06:42:06;;;;;;;2.35;0.80;;;16.60;99.90;;;;;;5018711;28;20485;-83
2022/05/26 06:44:43;;;;;;;3.20;1.10;;;16.60;99.90;;;;;;5019184;28;20034;-83
2022/05/26 06:47:17;;;;;;;2.47;1.23;;;17.70;99.90;;;;;;5037363;28;20021;-83
2022/05/26 06:49:43;;;;;;;2.00;0.77;;;16.80;99.90;;;;;;5012126;28;20026;-83
2022/05/26 06:52:11;;;;;;;4.45;1.13;;;16.90;99.90;;;;;;5015257;28;20042;-81
2022/05/26 06:54:43;;;;;;;3.47;1.02;;;17.00;99.90;;;;;;5027074;28;20021;-81
2022/05/26 06:57:09;;;;;;;3.08;1.10;;;16.90;99.90;;;;;;5009607;28;20026;-84
2022/05/26 06:59:36;;;;;;;2.40;1.10;;;16.90;99.90;;;;;;5022577;28;20037;-86
2022/05/26 07:02:03;;;;;;;3.58;1.08;;;17.00;99.90;;;;;;5028767;28;20014;-84
2022/05/26 07:04:29;;;;;;;2.53;0.98;;;;;;;;;;5021841;28;20045;-86
2022/05/26 07:06:55;;;;;;;3.42;1.10;;;16.90;99.90;;;;;;5037948;28;20029;-84
2022/05/26 07:09:22;;;;;;;2.03;1.00;;;17.00;99.90;;;;;;5018760;28;20037;-81
2022/05/26 07:11:48;;;;;;;2.47;1.10;;;16.70;99.90;;;;;;5030033;28;20029;-84
2022/05/26 07:14:14;;;;;;;2.35;0.90;;;18.20;99.90;;;;;;4970944;28;20079;-84
2022/05/26 07:16:41;;;;;;;1.58;1.02;;;16.60;99.90;;;;;;5001343;28;20025;-83
2022/05/26 07:19:07;;;;;;;2.78;1.05;;;17.60;99.90;;;;;;5026397;28;20045;-84
2022/05/26 07:21:33;;;;;;;3.05;1.20;;;;;;;;;;5023871;28;20034;-84
2022/05/26 07:23:59;;;;;;;2.55;1.27;;;16.90;99.90;;;;;;5021447;28;20111;-81
2022/05/26 07:26:26;;;;;;;3.10;1.02;;;17.00;99.90;;;;;;5023123;28;20033;-82
2022/05/26 07:28:52;;;;;;;2.67;0.90;;;17.10;99.90;;;;;;5005464;28;20026;-81
2022/05/26 07:31:18;;;;;;;3.20;1.05;;;18.60;99.90;;;;;;5007476;28;20085;-83
2022/05/26 07:33:44;;;;;;;2.95;0.95;;;17.50;99.90;;;;;;5024706;28;20121;-82
2022/05/26 07:41:16;;;;;;;1.98;0.80;;;19.00;99.90;;;;;;5006306;28;20105;-82
2022/05/26 07:41:42;;;;;;;2.75;1.00;;;18.00;99.90;;;;;;5030907;28;20041;-84
2022/05/26 07:44:08;;;;;;;2.28;1.10;;;17.30;99.90;;;;;;5017654;28;20068;-84
2022/05/26 07:46:34;;;;;;;2.05;0.98;;;17.20;99.90;;;;;;5026435;28;20033;-84
2022/05/26 07:49:01;;;;;;;3.28;1.50;;;17.30;99.90;;;;;;4992415;28;20079;-83
2022/05/26 07:51:26;;;;;;;2.88;0.95;;;17.30;99.90;;;;;;5005838;28;20026;-83
2022/05/26 07:53:52;;;;;;;2.22;0.93;;;17.20;99.90;;;;;;5005619;28;20388;-81
2022/05/26 07:56:20;;;;;;;1.83;0.95;;;17.30;99.90;;;;;;5001469;28;20027;-84
2022/05/26 07:58:47;;;;;;;2.78;1.20;;;17.50;99.90;;;;;;5028386;28;20092;-85
2022/05/26 08:01:14;;;;;;;2.67;1.00;;;;;;;;;;5012639;28;20030;-84
2022/05/26 08:03:40;;;;;;;3.03;1.45;;;;;;;;;;5026464;28;20095;-81
2022/05/26 08:06:06;;;;;;;3.00;1.45;;;17.40;99.90;;;;;;5008096;28;20480;-83
2022/05/26 08:08:33;;;;;;;4.82;1.45;;;17.70;99.90;;;;;;5030191;28;20036;-81
2022/05/26 08:10:59;;;;;;;3.38;0.85;;;;;;;;;;5012016;28;20083;-80
2022/05/26 08:13:25;;;;;;;3.65;1.17;;;;;;;;;;5031478;28;20018;-81
2022/05/26 08:15:52;;;;;;;3.58;1.40;;;17.90;99.90;;;;;;5021519;28;20549;-82
2022/05/26 08:18:18;;;;;;;3.63;1.08;;;18.00;99.90;;;;;;5026208;28;20084;-82
2022/05/26 08:20:43;;;;;;;3.22;1.00;;;18.20;99.70;;;;;;5020408;28;20026;-82
2022/05/26 08:23:09;;;;;;;4.85;1.05;;;20.00;99.90;;;;;;5021429;28;20037;-82
2022/05/26 08:25:35;;;;;;;3.47;1.20;;;18.20;99.70;;;;;;5030747;28;20029;-82
2022/05/26 08:28:00;;;;;;;5.72;1.10;;;18.30;99.90;;;;;;5007191;28;20112;-82
2022/05/26 08:30:27;;;;;;;4.35;1.48;;;18.50;99.40;;;;;;5010715;28;20018;-83
2022/05/26 08:32:54;;;;;;;2.63;1.08;;;18.80;97.90;;;;;;5019834;28;20021;-82
2022/05/26 08:35:21;;;;;;;5.05;1.20;;;19.20;98.10;;;;;;4995561;28;20053;-83
2022/05/26 08:37:47;;;;;;;2.20;1.00;;;;;;;;;;5019416;28;20053;-82
2022/05/26 08:40:38;;;;;;;3.28;1.45;;;18.90;97.40;;;;;;5014774;28;20025;-83
2022/05/26 08:43:05;;;;;;;1.83;0.80;;;19.00;97.50;;;;;;5010014;28;20038;-82
2022/05/26 08:45:43;;;;;;;1.70;1.00;;;18.90;97.60;;;;;;5005816;28;20035;-83
2022/05/26 08:48:15;;;;;;;2.50;1.00;;;19.20;97.20;;;;;;4999534;28;20026;-83
2022/05/26 08:50:40;;;;;;;3.83;0.93;;;19.00;96.30;;;;;;5006000;28;20033;-82
2022/05/26 08:53:30;;;;;;;3.60;1.10;;;19.00;96.60;;;;;;5005751;28;20033;-84
2022/05/26 08:55:56;;;;;;;2.63;1.20;;;19.00;96.60;;;;;;4995126;28;20030;-83
2022/05/26 08:58:27;;;;;;;3.92;1.20;;;19.20;96.60;;;;;;5013986;28;20063;-85
2022/05/26 09:00:54;;;;;;;2.33;0.80;;;19.30;96.40;;;;;;5000623;28;20124;-83
2022/05/26 09:03:19;;;;;;;2.65;0.80;;;19.30;95.80;;;;;;5017881;28;20030;-83
2022/05/26 09:05:48;;;;;;;3.63;1.20;;;19.10;96.00;;;;;;5018287;28;20026;-81
2022/05/26 09:13:53;;;;;;;2.55;1.10;;;19.00;95.30;;;;;;5010442;28;20021;-84
2022/05/26 09:16:20;;;;;;;2.92;1.17;;;18.90;95.80;;;;;;5000108;28;20026;-80
2022/05/26 09:19:07;;;;;;;3.22;1.10;;;19.10;95.70;;;;;;5008000;28;20439;-83
2022/05/26 09:21:33;;;;;;;2.47;1.25;;;19.10;94.70;;;;;;5017228;28;20058;-83
2022/05/26 09:24:16;;;;;;;5.22;1.80;;;19.20;94.80;;;;;;5003150;28;20030;-83
2022/05/26 09:26:47;;;;;;;4.28;1.30;;;19.20;95.00;;;;;;5015571;28;20030;-84
2022/05/26 09:29:13;;;;;;;2.63;1.00;;;;;;;;;;5001420;28;20034;-81
2022/05/26 09:31:49;;;;;;;2.50;0.90;;;19.10;94.90;;;;;;5011602;28;20048;-80
2022/05/26 09:34:19;;;;;;;4.93;1.35;;;18.90;95.70;;;;;;5001242;28;20041;-84
2022/05/26 09:36:56;;;;;;;2.72;1.05;;;19.20;95.50;;;;;;5036044;28;20026;-82
2022/05/26 09:39:41;;;;;;;3.42;1.30;;;19.30;94.10;;;;;;5022697;28;20064;-81
2022/05/26 09:42:28;;;;;;;3.88;1.40;;;19.60;94.50;;;;;;4995194;28;20038;-83
2022/05/26 09:45:11;;;;;;;2.35;1.08;;;19.60;94.60;;;;;;4999800;28;20026;-86
2022/05/26 09:47:57;;;;;;;3.35;1.25;;;19.50;94.60;;;;;;5016758;28;20042;-85
2022/05/26 09:50:37;;;;;;;2.83;1.30;;;19.50;94.80;;;;;;5022921;28;20074;-85
2022/05/26 09:53:09;;;;;;;2.97;1.40;;;19.50;95.00;;;;;;5006898;28;20476;-84
2022/05/26 09:55:46;;;;;;;4.57;1.20;;;19.70;93.90;;;;;;5020462;28;20113;-84
2022/05/26 09:58:27;;;;;;;2.88;1.20;;;19.70;94.10;;;;;;5021286;28;20076;-84
2022/05/26 10:00:58;;;;;;;3.28;1.05;;;19.60;92.90;;;;;;5000999;28;20026;-82
2022/05/26 10:03:32;;;;;;;5.30;1.20;;;19.60;92.90;;;;;;5026143;28;20022;-85
2022/05/26 10:06:33;;;;;;;4.57;1.42;;;19.50;93.00;;;;;;5023333;28;20061;-80
2022/05/26 10:09:12;;;;;;;5.13;1.35;;;19.20;93.40;;;;;;5020735;28;20034;-80
2022/05/26 10:11:53;;;;;;;2.72;1.10;;;19.40;93.10;;;;;;5011982;28;20030;-85
2022/05/26 10:14:26;;;;;;;3.20;1.15;;;19.60;91.40;;;;;;5006219;28;20458;-81
2022/05/26 10:16:59;;;;;;;5.28;1.63;;;19.70;91.30;;;;;;5005942;28;20030;-81
2022/05/26 10:19:31;;;;;;;2.40;1.10;;;20.00;91.20;;;;;;5003081;28;20045;-82
2022/05/26 10:22:09;;;;;;;5.97;2.58;;;20.00;91.30;;;;;;5013372;28;20025;-82
2022/05/26 10:24:48;;;;;;;4.38;1.50;;;20.50;90.00;;;;;;5028642;28;20037;-81
2022/05/26 10:27:52;;;;;;;3.35;0.90;;;20.50;90.10;;;;;;5030439;28;20037;-83
2022/05/26 10:30:20;;;;;;;5.35;1.33;;;20.40;90.40;;;;;;5011450;28;20488;-82
2022/05/26 10:33:05;;;;;;;2.78;1.00;;;20.50;89.80;;;;;;5035768;28;20022;-84
2022/05/26 10:35:51;;;;;;;2.85;0.95;;;20.50;90.00;;;;;;5002859;28;20026;-84
2022/05/26 10:38:16;;;;;;;3.35;1.33;;;20.70;89.70;;;;;;5016386;28;20037;-81
2022/05/26 10:40:56;;;;;;;3.63;1.10;;;20.80;89.10;;;;;;5019166;28;20039;-80
2022/05/26 10:43:35;;;;;;;2.50;1.08;;;20.80;89.40;;;;;;5023633;28;20032;-83
2022/05/26 10:46:06;;;;;;;2.90;1.00;;;20.90;87.40;;;;;;5016332;28;20060;-84
2022/05/26 10:48:50;;;;;;;3.38;1.05;;;20.90;87.40;;;;;;5031203;28;20030;-86
2022/05/26 10:51:19;;;;;;;2.40;1.00;;;20.80;88.50;;;;;;5036861;28;20057;-83
2022/05/26 10:54:00;;;;;;;2.88;1.17;;;20.90;88.40;;;;;;5038481;28;20021;-83
2022/05/26 10:56:46;;;;;;;3.30;1.10;;;21.00;89.20;;;;;;5020203;28;20037;-83
2022/05/26 10:59:24;;;;;;;5.15;1.35;;;20.90;89.30;;;;;;5022505;28;20030;-82
2022/05/26 11:02:06;;;;;;;4.40;1.77;;;20.90;89.20;;;;;;5015965;28;20035;-83
2022/05/26 11:04:50;;;;;;;2.55;1.08;;;20.90;90.20;;;;;;5030660;28;20026;-85
2022/05/26 11:07:25;;;;;;;3.08;1.40;;;21.00;88.50;;;;;;4998570;28;20079;-82
2022/05/26 11:09:55;;;;;;;3.92;1.23;;;21.20;87.40;;;;;;5003447;28;20022;-83
2022/05/26 11:12:44;;;;;;;3.30;1.20;;;21.60;86.70;;;;;;5006047;28;20029;-85
2022/05/26 11:18:05;;;;;;;3.00;1.30;;;21.50;86.00;;;;;;5011301;28;20033;-84
2022/05/26 11:20:42;;;;;;;2.95;1.30;;;21.50;86.30;;;;;;5026524;28;20022;-84
2022/05/26 11:23:08;;;;;;;4.28;1.70;;;;;;;;;;5029045;28;20025;-84
2022/05/26 11:25:43;;;;;;;3.45;1.40;;;21.80;82.20;;;;;;5007962;28;20026;-84
2022/05/26 11:28:23;;;;;;;4.40;1.65;;;22.10;81.10;;;;;;5037902;28;20025;-84
2022/05/26 11:36:56;;;;;;;4.50;1.42;;;23.00;78.00;;;;;;5039275;28;20082;-83
2022/05/26 11:39:29;;;;;;;5.10;1.42;;;22.70;77.40;;;;;;5040062;28;20026;-82
2022/05/26 11:42:22;;;;;;;7.10;1.63;;;22.80;74.60;;;;;;5031077;28;20037;-84
2022/05/26 11:45:10;;;;;;;5.47;1.33;;;22.70;73.10;;;;;;5018581;28;20415;-84
2022/05/26 11:48:04;;;;;;;5.10;1.15;;;22.40;73.80;;;;;;5002382;28;20059;-82
2022/05/26 11:51:03;;;;;;;3.30;1.02;;;22.30;74.10;;;;;;5009333;28;20546;-83
2022/05/26 11:53:35;;;;;;;4.00;1.45;;;22.10;76.40;;;;;;4983207;28;20033;-82
2022/05/26 11:56:19;;;;;;;4.10;1.33;;;22.00;76.90;;;;;;5003435;28;20044;-84
2022/05/26 11:58:47;;;;;;;4.68;1.40;;;22.00;77.90;;;;;;5030254;28;20053;-80
2022/05/26 12:01:19;;;;;;;4.70;1.67;;;22.10;77.40;;;;;;4986297;28;20057;-82
2022/05/26 12:03:53;;;;;;;4.00;1.27;;;22.10;77.40;;;;;;4999183;28;20029;-82
2022/05/26 12:06:37;;;;;;;5.03;1.42;;;22.00;77.00;;;;;;5024835;28;20030;-80
2022/05/26 12:09:05;;;;;;;4.30;1.40;;;22.00;77.40;;;;;;5024202;28;20038;-81
2022/05/26 12:12:08;;;;;;;4.50;1.40;;;21.90;77.70;;;;;;5030629;28;20026;-83
2022/05/26 12:14:46;;;;;;;3.00;1.13;;;21.80;76.80;;;;;;5025509;28;20029;-82
2022/05/26 12:17:33;;;;;;;5.70;1.73;;;21.80;77.50;;;;;;5008666;28;20021;-83
2022/05/26 12:20:11;;;;;;;4.78;2.08;;;21.50;78.40;;;;;;5018870;28;20105;-80
2022/05/26 12:22:52;;;;;;;5.05;1.38;;;21.50;79.30;;;;;;5016451;28;20050;-81
2022/05/26 12:25:30;;;;;;;6.82;1.95;;;21.60;78.20;;;;;;5019833;28;20077;-82
2022/05/26 12:28:26;;;;;;;3.20;1.38;;;21.50;78.80;;;;;;5002703;28;20037;-82
2022/05/26 12:30:52;;;;;;;7.63;1.80;;;21.60;79.20;;;;;;5024828;28;20026;-82
2022/05/26 12:33:20;;;;;;;5.50;1.42;;;22.10;78.00;;;;;;5026418;28;20028;-82
2022/05/26 12:36:12;;;;;;;3.70;1.75;;;22.30;77.70;;;;;;5017048;28;20081;-82
2022/05/26 12:38:59;;;;;;;5.43;1.40;;;22.50;77.00;;;;;;4993124;28;20022;-81
2022/05/26 12:41:44;;;;;;;3.72;1.20;;;22.50;76.90;;;;;;5018876;28;20026;-83
2022/05/26 12:44:37;;;;;;;4.28;1.70;;;22.60;76.60;;;;;;5025725;28;20089;-85
2022/05/26 12:47:22;;;;;;;4.80;1.60;;;22.70;75.40;;;;;;5005707;28;20026;-83
2022/05/26 12:50:09;;;;;;;5.22;1.70;;;22.80;75.10;;;;;;5022267;28;20060;-84
2022/05/26 12:52:55;;;;;;;4.32;1.40;;;22.80;74.30;;;;;;5022504;28;20033;-81
2022/05/26 12:55:26;;;;;;;2.35;1.20;;;22.80;73.70;;;;;;4999716;28;20026;-82
2022/05/26 12:58:16;;;;;;;4.78;1.30;;;23.00;72.90;;;;;;5021610;28;20523;-82
2022/05/26 13:00:54;;;;;;;7.40;1.58;;;23.30;73.60;;;;;;5009419;28;20029;-83
2022/05/26 13:03:40;;;;;;;5.55;1.77;;;23.20;71.90;;;;;;5023038;28;20026;-84
2022/05/26 13:06:09;;;;;;;4.57;1.40;;;23.20;72.70;;;;;;5017889;28;20506;-83
2022/05/26 13:08:59;;;;;;;4.20;1.23;;;23.10;73.30;;;;;;5014977;28;20104;-85
2022/05/26 13:11:32;;;;;;;4.75;1.30;;;22.90;74.50;;;;;;5018124;28;20496;-83
2022/05/26 13:14:02;;;;;;;3.72;1.50;;;22.80;75.70;;;;;;5011108;28;20050;-83
2022/05/26 13:16:38;;;;;;;7.15;2.03;;;22.90;76.30;;;;;;5006247;28;20022;-85
2022/05/26 13:19:17;;;;;;;5.03;2.05;;;22.80;76.10;;;;;;5016173;28;20034;-82
2022/05/26 13:21:52;;;;;;;3.45;1.15;;;22.80;74.50;;;;;;5004752;28;20055;-82
2022/05/26 13:24:27;;;;;;;6.78;1.52;;;22.80;74.30;;;;;;5023987;28;20036;-81
2022/05/26 13:27:10;;;;;;;3.28;1.40;;;23.00;74.20;;;;;;5027984;28;20539;-79
2022/05/26 13:29:41;;;;;;;3.88;1.20;;;22.90;74.30;;;;;;5000386;28;20034;-82
2022/05/26 13:34:56;;;;;;;4.70;1.30;;;22.50;75.50;;;;;;5038696;28;20085;-82
2022/05/26 13:37:25;;;;;;;2.88;1.33;;;22.50;74.50;;;;;;5003944;28;20754;-81
2022/05/26 13:40:14;;;;;;;4.10;1.20;;;22.50;74.90;;;;;;5030590;28;20026;-81
2022/05/26 13:42:43;;;;;;;3.17;1.27;;;22.40;75.40;;;;;;5020946;28;20029;-82
2022/05/26 13:45:21;;;;;;;5.90;1.50;;;22.40;75.30;;;;;;5018844;28;20014;-85
2022/05/26 13:47:47;;;;;;;3.85;1.65;;;22.30;75.70;;;;;;5042630;28;20037;-85
2022/05/26 13:50:13;;;;;;;4.07;1.30;;;22.40;76.10;;;;;;5026236;28;20054;-88
2022/05/26 13:52:40;;;;;;;5.13;1.40;;;22.70;75.20;;;;;;5038057;28;20022;-82
2022/05/26 13:55:27;;;;;;;5.40;1.55;;;22.90;74.20;;;;;;5034917;28;20113;-83
2022/05/26 13:57:55;;;;;;;4.40;1.30;;;23.20;74.60;;;;;;5022722;28;20427;-80